sensor_id;sensor_type;location;lat;lon;timestamp;pressure;altitude;pressure_sealevel;temperature;humidity
45253;BME280;63171;50.520;30.486;2023-03-18T00:00:23;101017.78;;;3.18;100.00
45253;BME280;63171;50.520;30.486;2023-03-18T00:01:13;101018.59;;;3.23;100.00
45253;BME280;63171;50.520;30.486;2023-03-18T00:02:04;101015.72;;;3.42;100.00
45253;BME280;63171;50.520;30.486;2023-03-18T00:02:54;101025.69;;;3.68;100.00
45253;BME280;63171;50.520;30.486;2023-03-18T00:03:46;101025.47;;;3.83;100.00
45253;BME280;63171;50.520;30.486;2023-03-18T00:04:36;101013.25;;;3.91;100.00
45253;BME280;63171;50.520;30.486;2023-03-18T00:05:26;101017.41;;;4.00;100.00
45253;BME280;63171;50.520;30.486;2023-03-18T00:06:18;101013.78;;;4.10;100.00
45253;BME280;63171;50.520;30.486;2023-03-18T00:07:09;101013.06;;;4.02;100.00
45253;BME280;63171;50.520;30.486;2023-03-18T00:08:00;101032.16;;;3.96;100.00
45253;BME280;63171;50.520;30.486;2023-03-18T00:08:53;101027.75;;;4.03;100.00
45253;BME280;63171;50.520;30.486;2023-03-18T00:09:42;101013.25;;;3.91;100.00
45253;BME280;63171;50.520;30.486;2023-03-18T00:10:34;101017.38;;;4.03;100.00
45253;BME280;63171;50.520;30.486;2023-03-18T00:11:23;101014.88;;;3.97;100.00
45253;BME280;63171;50.520;30.486;2023-03-18T00:12:14;101011.44;;;3.95;100.00
45253;BME280;63171;50.520;30.486;2023-03-18T00:13:04;101017.34;;;4.04;100.00
45253;BME280;63171;50.520;30.486;2023-03-18T00:13:54;101019.09;;;4.04;100.00
45253;BME280;63171;50.520;30.486;2023-03-18T00:14:45;101012.34;;;3.94;100.00
45253;BME280;63171;50.520;30.486;2023-03-18T00:15:34;101009.84;;;3.88;100.00
45253;BME280;63171;50.520;30.486;2023-03-18T00:16:25;101015.75;;;3.96;100.00
45253;BME280;63171;50.520;30.486;2023-03-18T00:17:15;101017.81;;;3.75;100.00
45253;BME280;63171;50.520;30.486;2023-03-18T00:18:05;101016.81;;;3.84;100.00
45253;BME280;63171;50.520;30.486;2023-03-18T00:18:56;101020.06;;;3.97;100.00
45253;BME280;63171;50.520;30.486;2023-03-18T00:19:46;101015.63;;;4.03;100.00
45253;BME280;63171;50.520;30.486;2023-03-18T00:20:38;101017.56;;;3.91;100.00
45253;BME280;63171;50.520;30.486;2023-03-18T00:21:28;101017.53;;;3.92;100.00
45253;BME280;63171;50.520;30.486;2023-03-18T00:22:18;101010.22;;;3.65;100.00
45253;BME280;63171;50.520;30.486;2023-03-18T00:23:10;101012.50;;;3.83;100.00
45253;BME280;63171;50.520;30.486;2023-03-18T00:24:01;101014.84;;;3.98;100.00
45253;BME280;63171;50.520;30.486;2023-03-18T00:24:51;101032.94;;;4.00;100.00
45253;BME280;63171;50.520;30.486;2023-03-18T00:25:42;101020.03;;;3.98;100.00
45253;BME280;63171;50.520;30.486;2023-03-18T00:26:32;101017.13;;;3.64;100.00
45253;BME280;63171;50.520;30.486;2023-03-18T00:27:23;101021.38;;;3.68;100.00
45253;BME280;63171;50.520;30.486;2023-03-18T00:28:13;101014.19;;;3.85;100.00
45253;BME280;63171;50.520;30.486;2023-03-18T00:29:04;101016.56;;;3.98;100.00
45253;BME280;63171;50.520;30.486;2023-03-18T00:29:54;101014.72;;;4.06;100.00
45253;BME280;63171;50.520;30.486;2023-03-18T00:30:45;101019.78;;;4.12;100.00
45253;BME280;63171;50.520;30.486;2023-03-18T00:31:36;101015.47;;;4.14;100.00
45253;BME280;63171;50.520;30.486;2023-03-18T00:32:27;101010.22;;;4.17;100.00
45253;BME280;63171;50.520;30.486;2023-03-18T00:33:18;101017.00;;;4.23;100.00
45253;BME280;63171;50.520;30.486;2023-03-18T00:34:09;101017.91;;;4.22;100.00
45253;BME280;63171;50.520;30.486;2023-03-18T00:34:59;101023.13;;;4.20;100.00
45253;BME280;63171;50.520;30.486;2023-03-18T00:35:50;101019.59;;;4.23;100.00
45253;BME280;63171;50.520;30.486;2023-03-18T00:36:42;101015.22;;;4.28;100.00
45253;BME280;63171;50.520;30.486;2023-03-18T00:37:34;101019.56;;;4.24;100.00
45253;BME280;63171;50.520;30.486;2023-03-18T00:38:26;101013.47;;;4.27;100.00
45253;BME280;63171;50.520;30.486;2023-03-18T00:39:18;101017.03;;;4.21;100.00
45253;BME280;63171;50.520;30.486;2023-03-18T00:40:14;101018.66;;;4.28;100.00
45253;BME280;63171;50.520;30.486;2023-03-18T00:41:09;101011.19;;;4.10;100.00
45253;BME280;63171;50.520;30.486;2023-03-18T00:42:04;101006.94;;;4.06;100.00
45253;BME280;63171;50.520;30.486;2023-03-18T00:42:58;101011.09;;;4.16;100.00
45253;BME280;63171;50.520;30.486;2023-03-18T00:43:56;101009.25;;;4.21;100.00
45253;BME280;63171;50.520;30.486;2023-03-18T00:44:46;101014.41;;;4.23;100.00
45253;BME280;63171;50.520;30.486;2023-03-18T00:45:37;101012.88;;;4.14;100.00
45253;BME280;63171;50.520;30.486;2023-03-18T00:46:28;101015.47;;;4.14;100.00
45253;BME280;63171;50.520;30.486;2023-03-18T00:47:20;101013.47;;;4.27;100.00
45253;BME280;63171;50.520;30.486;2023-03-18T00:48:10;101014.44;;;4.21;100.00
45253;BME280;63171;50.520;30.486;2023-03-18T00:49:02;101013.84;;;4.07;100.00
45253;BME280;63171;50.520;30.486;2023-03-18T00:49:53;101017.31;;;4.06;100.00
45253;BME280;63171;50.520;30.486;2023-03-18T00:50:44;101013.31;;;3.86;100.00
45253;BME280;63171;50.520;30.486;2023-03-18T00:51:35;101017.50;;;3.95;100.00
45253;BME280;63171;50.520;30.486;2023-03-18T00:52:26;101022.06;;;3.79;100.00
45253;BME280;63171;50.520;30.486;2023-03-18T00:53:16;101020.81;;;3.49;100.00
45253;BME280;63171;50.520;30.486;2023-03-18T00:54:10;101024.66;;;3.79;100.00
45253;BME280;63171;50.520;30.486;2023-03-18T00:55:01;101019.13;;;4.01;100.00
45253;BME280;63171;50.520;30.486;2023-03-18T00:55:51;101018.84;;;4.18;100.00
45253;BME280;63171;50.520;30.486;2023-03-18T00:56:42;101016.66;;;3.93;100.00
45253;BME280;63171;50.520;30.486;2023-03-18T00:57:33;101019.97;;;4.03;100.00
45253;BME280;63171;50.520;30.486;2023-03-18T00:58:22;101025.91;;;4.08;100.00
45253;BME280;63171;50.520;30.486;2023-03-18T00:59:13;101016.25;;;4.18;100.00
45253;BME280;63171;50.520;30.486;2023-03-18T01:00:05;101028.25;;;4.23;100.00
45253;BME280;63171;50.520;30.486;2023-03-18T01:02:39;101018.81;;;4.19;100.00
45253;BME280;63171;50.520;30.486;2023-03-18T01:03:30;101029.91;;;4.26;100.00
45253;BME280;63171;50.520;30.486;2023-03-18T01:04:22;101017.16;;;4.13;100.00
45253;BME280;63171;50.520;30.486;2023-03-18T01:05:13;101020.66;;;4.14;100.00
45253;BME280;63171;50.520;30.486;2023-03-18T01:06:04;101029.25;;;4.16;100.00
45253;BME280;63171;50.520;30.486;2023-03-18T01:06:54;101027.56;;;4.12;100.00
45253;BME280;63171;50.520;30.486;2023-03-18T01:07:44;101021.59;;;4.08;100.00
45253;BME280;63171;50.520;30.486;2023-03-18T01:08:35;101023.13;;;4.20;100.00
45253;BME280;63171;50.520;30.486;2023-03-18T01:09:27;101016.94;;;4.26;100.00
45253;BME280;63171;50.520;30.486;2023-03-18T01:10:17;101023.03;;;4.25;100.00
45253;BME280;63171;50.520;30.486;2023-03-18T01:11:08;101019.66;;;4.20;100.00
45253;BME280;63171;50.520;30.486;2023-03-18T01:11:58;101022.28;;;4.18;100.00
45253;BME280;63171;50.520;30.486;2023-03-18T01:12:48;101014.56;;;4.13;100.00
45253;BME280;63171;50.520;30.486;2023-03-18T01:13:39;101022.34;;;4.13;100.00
45253;BME280;63171;50.520;30.486;2023-03-18T01:14:30;101017.16;;;4.15;99.96
45253;BME280;63171;50.520;30.486;2023-03-18T01:15:20;101016.97;;;4.24;100.00
45253;BME280;63171;50.520;30.486;2023-03-18T01:16:11;101018.63;;;4.30;100.00
45253;BME280;63171;50.520;30.486;2023-03-18T01:17:02;101022.03;;;4.32;100.00
45253;BME280;63171;50.520;30.486;2023-03-18T01:17:53;101021.84;;;3.93;99.58
45253;BME280;63171;50.520;30.486;2023-03-18T01:18:45;101020.28;;;3.83;99.66
45253;BME280;63171;50.520;30.486;2023-03-18T01:19:37;101022.66;;;3.97;99.72
45253;BME280;63171;50.520;30.486;2023-03-18T01:20:27;101019.25;;;3.93;99.42
45253;BME280;63171;50.520;30.486;2023-03-18T01:21:19;101021.81;;;3.95;99.37
45253;BME280;63171;50.520;30.486;2023-03-18T01:22:15;101028.66;;;3.99;99.79
45253;BME280;63171;50.520;30.486;2023-03-18T01:23:10;101026.91;;;4.01;99.50
45253;BME280;63171;50.520;30.486;2023-03-18T01:24:03;101025.84;;;4.11;99.50
45253;BME280;63171;50.520;30.486;2023-03-18T01:24:57;101029.25;;;4.16;99.44
45253;BME280;63171;50.520;30.486;2023-03-18T01:25:54;101033.41;;;4.23;99.81
45253;BME280;63171;50.520;30.486;2023-03-18T01:26:44;101037.72;;;4.24;99.97
45253;BME280;63171;50.520;30.486;2023-03-18T01:27:35;101032.53;;;4.24;99.93
45253;BME280;63171;50.520;30.486;2023-03-18T01:28:26;101036.91;;;4.22;99.53
45253;BME280;63171;50.520;30.486;2023-03-18T01:29:17;101039.41;;;4.28;99.82
45253;BME280;63171;50.520;30.486;2023-03-18T01:30:10;101035.97;;;4.28;99.82
45253;BME280;63171;50.520;30.486;2023-03-18T01:31:02;101035.97;;;4.28;99.44
45253;BME280;63171;50.520;30.486;2023-03-18T01:31:53;101036.09;;;4.19;99.54
45253;BME280;63171;50.520;30.486;2023-03-18T01:32:44;101036.94;;;4.21;99.65
45253;BME280;63171;50.520;30.486;2023-03-18T01:33:35;101031.63;;;4.28;99.40
45253;BME280;63171;50.520;30.486;2023-03-18T01:34:24;101040.34;;;4.23;99.43
45253;BME280;63171;50.520;30.486;2023-03-18T01:35:16;101039.66;;;4.14;99.16
45253;BME280;63171;50.520;30.486;2023-03-18T01:36:09;101035.16;;;4.23;99.62
45253;BME280;63171;50.520;30.486;2023-03-18T01:36:59;101030.88;;;4.22;99.29
45253;BME280;63171;50.520;30.486;2023-03-18T01:37:53;101031.94;;;4.08;99.00
45253;BME280;63171;50.520;30.486;2023-03-18T01:38:44;101037.09;;;4.10;99.13
45253;BME280;63171;50.520;30.486;2023-03-18T01:39:36;101036.16;;;3.62;98.55
45253;BME280;63171;50.520;30.486;2023-03-18T01:40:32;101040.03;;;3.90;98.97
45253;BME280;63171;50.520;30.486;2023-03-18T01:41:23;101030.25;;;4.07;99.00
45253;BME280;63171;50.520;30.486;2023-03-18T01:42:14;101034.50;;;4.11;99.06
45253;BME280;63171;50.520;30.486;2023-03-18T01:43:13;101030.09;;;4.17;99.42
45253;BME280;63171;50.520;30.486;2023-03-18T01:44:05;101033.59;;;4.12;99.13
45253;BME280;63171;50.520;30.486;2023-03-18T01:45:11;101036.13;;;3.65;98.40
45253;BME280;63171;50.520;30.486;2023-03-18T01:46:27;101043.53;;;3.89;98.69
45253;BME280;63171;50.520;30.486;2023-03-18T01:47:20;101037.97;;;3.56;98.41
45253;BME280;63171;50.520;30.486;2023-03-18T01:48:17;101042.09;;;3.68;98.75
45253;BME280;63171;50.520;30.486;2023-03-18T01:49:11;101036.94;;;3.67;98.55
45253;BME280;63171;50.520;30.486;2023-03-18T01:50:03;101044.09;;;3.51;98.54
45253;BME280;63171;50.520;30.486;2023-03-18T01:50:59;101043.78;;;3.71;98.83
45253;BME280;63171;50.520;30.486;2023-03-18T01:51:54;101046.13;;;3.86;98.97
45253;BME280;63171;50.520;30.486;2023-03-18T01:52:49;101042.66;;;3.89;99.14
45253;BME280;63171;50.520;30.486;2023-03-18T01:53:46;101041.66;;;3.96;99.23
45253;BME280;63171;50.520;30.486;2023-03-18T01:54:40;101037.41;;;3.93;98.93
45253;BME280;63171;50.520;30.486;2023-03-18T01:55:35;101038.13;;;4.00;99.13
45253;BME280;63171;50.520;30.486;2023-03-18T01:56:25;101038.16;;;3.98;99.31
45253;BME280;63171;50.520;30.486;2023-03-18T01:57:17;101044.38;;;3.90;99.16
45253;BME280;63171;50.520;30.486;2023-03-18T01:58:11;101040.09;;;3.85;98.93
45253;BME280;63171;50.520;30.486;2023-03-18T01:59:04;101036.44;;;3.99;99.19
45253;BME280;63171;50.520;30.486;2023-03-18T01:59:55;101045.81;;;4.07;99.23
45253;BME280;63171;50.520;30.486;2023-03-18T02:00:50;101046.56;;;4.14;99.31
45253;BME280;63171;50.520;30.486;2023-03-18T02:01:48;101044.72;;;4.21;99.35
45253;BME280;63171;50.520;30.486;2023-03-18T02:02:42;101056.56;;;3.83;98.86
45253;BME280;63171;50.520;30.486;2023-03-18T02:03:34;101053.06;;;3.85;99.17
45253;BME280;63171;50.520;30.486;2023-03-18T02:04:30;101053.16;;;3.79;99.09
45253;BME280;63171;50.520;30.486;2023-03-18T02:05:23;101053.00;;;3.90;99.02
45253;BME280;63171;50.520;30.486;2023-03-18T02:06:14;101045.81;;;3.52;98.52
45253;BME280;63171;50.520;30.486;2023-03-18T02:07:05;101045.19;;;3.35;98.47
45253;BME280;63171;50.520;30.486;2023-03-18T02:07:57;101052.25;;;3.20;98.14
45253;BME280;63171;50.520;30.486;2023-03-18T02:08:48;101049.41;;;3.40;98.66
45253;BME280;63171;50.520;30.486;2023-03-18T02:09:39;101046.44;;;3.68;99.15
45253;BME280;63171;50.520;30.486;2023-03-18T02:10:30;101050.84;;;3.60;99.01
45253;BME280;63171;50.520;30.486;2023-03-18T02:11:23;101045.47;;;3.73;99.03
45253;BME280;63171;50.520;30.486;2023-03-18T02:12:22;101047.31;;;3.67;98.93
45253;BME280;63171;50.520;30.486;2023-03-18T02:13:14;101047.63;;;3.44;98.66
45253;BME280;63171;50.520;30.486;2023-03-18T02:14:08;101053.84;;;3.32;98.21
45253;BME280;63171;50.520;30.486;2023-03-18T02:15:00;101054.41;;;3.54;98.80
45253;BME280;63171;50.520;30.486;2023-03-18T02:15:55;101049.84;;;3.70;99.27
45253;BME280;63171;50.520;30.486;2023-03-18T02:16:48;101059.97;;;3.85;99.54
45253;BME280;63171;50.520;30.486;2023-03-18T02:17:43;101057.22;;;3.96;99.27
45253;BME280;63171;50.520;30.486;2023-03-18T02:18:40;101066.63;;;4.03;99.49
45253;BME280;63171;50.520;30.486;2023-03-18T02:19:44;101067.44;;;4.05;99.63
45253;BME280;63171;50.520;30.486;2023-03-18T02:20:47;101063.34;;;3.92;99.58
45253;BME280;63171;50.520;30.486;2023-03-18T02:21:50;101066.63;;;4.03;99.29
45253;BME280;63171;50.520;30.486;2023-03-18T02:22:48;101070.28;;;3.90;99.09
45253;BME280;63171;50.520;30.486;2023-03-18T02:23:44;101070.38;;;3.82;98.88
45253;BME280;63171;50.520;30.486;2023-03-18T02:24:44;101063.44;;;3.84;99.28
45253;BME280;63171;50.520;30.486;2023-03-18T02:25:46;101066.78;;;3.92;99.17
45253;BME280;63171;50.520;30.486;2023-03-18T02:26:46;101070.13;;;3.99;99.27
45253;BME280;63171;50.520;30.486;2023-03-18T02:27:50;101067.53;;;3.99;99.27
45253;BME280;63171;50.520;30.486;2023-03-18T02:28:42;101070.97;;;4.01;99.03
45253;BME280;63171;50.520;30.486;2023-03-18T02:29:35;101060.66;;;3.96;98.94
45253;BME280;63171;50.520;30.486;2023-03-18T02:30:46;101066.91;;;3.83;98.71
45253;BME280;63171;50.520;30.486;2023-03-18T02:31:39;101072.03;;;3.89;99.05
45253;BME280;63171;50.520;30.486;2023-03-18T02:32:31;101066.78;;;3.92;99.11
45253;BME280;63171;50.520;30.486;2023-03-18T02:33:29;101067.63;;;3.94;98.57
45253;BME280;63171;50.520;30.486;2023-03-18T02:34:21;101064.13;;;3.97;98.81
45253;BME280;63171;50.520;30.486;2023-03-18T02:35:14;101071.81;;;4.03;98.62
45253;BME280;63171;50.520;30.486;2023-03-18T02:36:08;101069.25;;;4.00;98.54
45253;BME280;63171;50.520;30.486;2023-03-18T02:37:03;101075.28;;;4.00;98.39
45253;BME280;63171;50.520;30.486;2023-03-18T02:37:53;101078.09;;;3.88;98.34
45253;BME280;63171;50.520;30.486;2023-03-18T02:38:44;101069.69;;;3.71;97.92
45253;BME280;63171;50.520;30.486;2023-03-18T02:39:39;101076.34;;;3.89;98.33
45253;BME280;63171;50.520;30.486;2023-03-18T02:40:32;101070.97;;;4.01;98.15
45253;BME280;63171;50.520;30.486;2023-03-18T02:41:26;101074.31;;;4.07;98.31
45253;BME280;63171;50.520;30.486;2023-03-18T02:42:26;101080.50;;;3.97;98.44
45253;BME280;63171;50.520;30.486;2023-03-18T02:43:22;101073.44;;;4.08;98.08
45253;BME280;63171;50.520;30.486;2023-03-18T02:44:18;101076.06;;;4.07;98.13
45253;BME280;63171;50.520;30.486;2023-03-18T02:45:37;101077.03;;;4.01;98.03
45253;BME280;63171;50.520;30.486;2023-03-18T02:46:36;101075.22;;;4.05;97.98
45253;BME280;63171;50.520;30.486;2023-03-18T02:47:29;101075.13;;;4.09;98.11
45253;BME280;63171;50.520;30.486;2023-03-18T02:48:23;101072.66;;;4.03;97.68
45253;BME280;63171;50.520;30.486;2023-03-18T02:49:17;101076.09;;;4.05;97.56
45253;BME280;63171;50.520;30.486;2023-03-18T02:50:09;101078.66;;;4.05;97.30
45253;BME280;63171;50.520;30.486;2023-03-18T02:50:59;101076.97;;;4.04;97.67
45253;BME280;63171;50.520;30.486;2023-03-18T02:51:49;101079.41;;;4.12;97.64
45253;BME280;63171;50.520;30.486;2023-03-18T02:52:41;101072.47;;;4.15;97.55
45253;BME280;63171;50.520;30.486;2023-03-18T02:53:31;101079.38;;;4.13;97.46
45253;BME280;63171;50.520;30.486;2023-03-18T02:54:23;101075.19;;;4.06;97.15
45253;BME280;63171;50.520;30.486;2023-03-18T02:55:14;101073.34;;;4.14;97.45
45253;BME280;63171;50.520;30.486;2023-03-18T02:56:05;101079.38;;;4.13;97.32
45253;BME280;63171;50.520;30.486;2023-03-18T02:56:55;101078.66;;;4.07;96.94
45253;BME280;63171;50.520;30.486;2023-03-18T02:57:46;101079.50;;;4.07;96.92
45253;BME280;63171;50.520;30.486;2023-03-18T02:58:37;101069.13;;;4.07;97.05
45253;BME280;63171;50.520;30.486;2023-03-18T02:59:28;101075.09;;;4.11;96.99
45253;BME280;63171;50.520;30.486;2023-03-18T03:00:21;101077.75;;;4.08;97.06
45253;BME280;63171;50.520;30.486;2023-03-18T03:01:12;101079.47;;;4.09;96.80
45253;BME280;63171;50.520;30.486;2023-03-18T03:02:02;101074.44;;;4.01;96.65
45253;BME280;63171;50.520;30.486;2023-03-18T03:02:52;101077.09;;;3.95;96.49
45253;BME280;63171;50.520;30.486;2023-03-18T03:03:44;101075.22;;;4.05;96.59
45253;BME280;63171;50.520;30.486;2023-03-18T03:04:35;101070.81;;;4.10;96.70
45253;BME280;63171;50.520;30.486;2023-03-18T03:05:27;101070.22;;;3.94;96.40
45253;BME280;63171;50.520;30.486;2023-03-18T03:06:17;101069.22;;;4.03;96.19
45253;BME280;63171;50.520;30.486;2023-03-18T03:07:09;101069.22;;;4.03;96.27
45253;BME280;63171;50.520;30.486;2023-03-18T03:08:03;101074.31;;;4.07;96.16
45253;BME280;63171;50.520;30.486;2023-03-18T03:08:58;101071.72;;;4.07;96.52
45253;BME280;63171;50.520;30.486;2023-03-18T03:09:51;101073.38;;;4.11;96.05
45253;BME280;63171;50.520;30.486;2023-03-18T03:10:43;101080.28;;;4.14;96.00
45253;BME280;63171;50.520;30.486;2023-03-18T03:11:33;101073.50;;;4.05;95.73
45253;BME280;63171;50.520;30.486;2023-03-18T03:12:32;101074.44;;;4.00;96.03
45253;BME280;63171;50.520;30.486;2023-03-18T03:13:23;101077.81;;;4.05;95.94
45253;BME280;63171;50.520;30.486;2023-03-18T03:14:17;101082.09;;;4.07;95.90
45253;BME280;63171;50.520;30.486;2023-03-18T03:15:09;101077.78;;;4.06;95.58
45253;BME280;63171;50.520;30.486;2023-03-18T03:16:06;101076.94;;;4.06;95.41
45253;BME280;63171;50.520;30.486;2023-03-18T03:16:57;101076.06;;;4.07;95.57
45253;BME280;63171;50.520;30.486;2023-03-18T03:17:48;101079.56;;;4.04;95.57
45253;BME280;63171;50.520;30.486;2023-03-18T03:18:40;101078.66;;;4.07;95.78
45253;BME280;63171;50.520;30.486;2023-03-18T03:19:32;101088.06;;;4.11;95.54
45253;BME280;63171;50.520;30.486;2023-03-18T03:20:22;101082.03;;;4.10;95.17
45253;BME280;63171;50.520;30.486;2023-03-18T03:21:14;101081.97;;;4.13;95.20
45253;BME280;63171;50.520;30.486;2023-03-18T03:22:05;101083.94;;;4.01;95.09
45253;BME280;63171;50.520;30.486;2023-03-18T03:22:55;101079.53;;;4.06;95.00
45253;BME280;63171;50.520;30.486;2023-03-18T03:23:45;101086.53;;;4.01;94.69
45253;BME280;63171;50.520;30.486;2023-03-18T03:24:37;101084.03;;;3.95;94.69
45253;BME280;63171;50.520;30.486;2023-03-18T03:25:27;101089.94;;;4.04;94.89
45253;BME280;63171;50.520;30.486;2023-03-18T03:26:19;101082.97;;;4.06;94.57
45253;BME280;63171;50.520;30.486;2023-03-18T03:27:10;101088.06;;;4.11;94.90
45253;BME280;63171;50.520;30.486;2023-03-18T03:28:02;101087.28;;;4.07;94.82
45253;BME280;63171;50.520;30.486;2023-03-18T03:28:52;101095.38;;;3.88;94.30
45253;BME280;63171;50.520;30.486;2023-03-18T03:29:45;101096.19;;;3.91;94.54
45253;BME280;63171;50.520;30.486;2023-03-18T03:30:35;101089.97;;;4.00;94.25
45253;BME280;63171;50.520;30.486;2023-03-18T03:31:25;101100.28;;;4.04;94.56
45253;BME280;63171;50.520;30.486;2023-03-18T03:32:16;101096.00;;;4.03;94.47
45253;BME280;63171;50.520;30.486;2023-03-18T03:33:06;101101.16;;;4.05;94.35
45253;BME280;63171;50.520;30.486;2023-03-18T03:33:56;101095.13;;;4.03;94.13
45253;BME280;63171;50.520;30.486;2023-03-18T03:34:46;101090.94;;;3.94;94.10
45253;BME280;63171;50.520;30.486;2023-03-18T03:35:37;101093.56;;;3.93;93.91
45253;BME280;63171;50.520;30.486;2023-03-18T03:36:29;101095.34;;;3.89;93.78
45253;BME280;63171;50.520;30.486;2023-03-18T03:37:20;101094.31;;;4.01;94.12
45253;BME280;63171;50.520;30.486;2023-03-18T03:38:10;101097.78;;;3.98;93.60
45253;BME280;63171;50.520;30.486;2023-03-18T03:39:01;101091.03;;;3.88;93.54
45253;BME280;63171;50.520;30.486;2023-03-18T03:39:52;101097.84;;;3.94;93.57
45253;BME280;63171;50.520;30.486;2023-03-18T03:40:42;101099.56;;;3.95;93.44
45253;BME280;63171;50.520;30.486;2023-03-18T03:41:34;101097.06;;;3.90;93.65
45253;BME280;63171;50.520;30.486;2023-03-18T03:42:24;101092.69;;;3.92;93.56
45253;BME280;63171;50.520;30.486;2023-03-18T03:43:15;101093.56;;;3.93;93.57
45253;BME280;63171;50.520;30.486;2023-03-18T03:44:05;101093.38;;;4.05;93.65
45253;BME280;63171;50.520;30.486;2023-03-18T03:44:57;101093.25;;;4.11;93.75
45253;BME280;63171;50.520;30.486;2023-03-18T03:45:47;101088.09;;;4.09;93.67
45253;BME280;63171;50.520;30.486;2023-03-18T03:46:38;101090.69;;;4.09;93.60
45253;BME280;63171;50.520;30.486;2023-03-18T03:47:29;101089.88;;;4.07;93.26
45253;BME280;63171;50.520;30.486;2023-03-18T03:48:20;101095.09;;;4.06;93.32
45253;BME280;63171;50.520;30.486;2023-03-18T03:49:11;101087.66;;;3.83;93.11
45253;BME280;63171;50.520;30.486;2023-03-18T03:50:02;101091.94;;;3.85;93.00
45253;BME280;63171;50.520;30.486;2023-03-18T03:50:52;101092.78;;;3.86;92.87
45253;BME280;63171;50.520;30.486;2023-03-18T03:51:44;101091.09;;;3.83;92.78
45253;BME280;63171;50.520;30.486;2023-03-18T03:52:35;101090.13;;;3.91;92.85
45253;BME280;63171;50.520;30.486;2023-03-18T03:53:27;101091.84;;;3.92;93.05
45253;BME280;63171;50.520;30.486;2023-03-18T03:54:17;101091.72;;;4.01;93.15
45253;BME280;63171;50.520;30.486;2023-03-18T03:55:10;101091.53;;;4.11;93.12
45253;BME280;63171;50.520;30.486;2023-03-18T03:56:00;101091.56;;;4.10;93.12
45253;BME280;63171;50.520;30.486;2023-03-18T03:56:51;101097.13;;;3.84;92.49
45253;BME280;63171;50.520;30.486;2023-03-18T03:57:42;101092.81;;;3.84;92.64
45253;BME280;63171;50.520;30.486;2023-03-18T03:58:33;101091.16;;;3.80;92.42
45253;BME280;63171;50.520;30.486;2023-03-18T03:59:23;101091.06;;;3.85;92.57
45253;BME280;63171;50.520;30.486;2023-03-18T04:00:35;101094.50;;;3.85;92.54
45253;BME280;63171;50.520;30.486;2023-03-18T04:01:25;101089.25;;;3.92;92.38
45253;BME280;63171;50.520;30.486;2023-03-18T04:02:17;101089.19;;;3.96;92.79
45253;BME280;63171;50.520;30.486;2023-03-18T04:03:07;101090.03;;;3.97;92.58
45253;BME280;63171;50.520;30.486;2023-03-18T04:03:59;101092.63;;;3.97;92.11
45253;BME280;63171;50.520;30.486;2023-03-18T04:04:51;101091.09;;;3.83;92.20
45253;BME280;63171;50.520;30.486;2023-03-18T04:05:51;101099.59;;;3.93;92.36
45253;BME280;63171;50.520;30.486;2023-03-18T04:06:44;101100.59;;;3.83;92.13
45253;BME280;63171;50.520;30.486;2023-03-18T04:07:36;101097.25;;;3.78;92.08
45253;BME280;63171;50.520;30.486;2023-03-18T04:08:25;101092.13;;;3.72;92.22
45253;BME280;63171;50.520;30.486;2023-03-18T04:09:16;101098.91;;;3.82;92.31
45253;BME280;63171;50.520;30.486;2023-03-18T04:10:07;101104.19;;;3.73;92.12
45253;BME280;63171;50.520;30.486;2023-03-18T04:10:59;101093.72;;;3.82;92.00
45253;BME280;63171;50.520;30.486;2023-03-18T04:11:49;101097.94;;;3.89;91.78
45253;BME280;63171;50.520;30.486;2023-03-18T04:12:40;101098.88;;;3.83;91.97
45253;BME280;63171;50.520;30.486;2023-03-18T04:13:30;101101.56;;;3.77;92.14
45253;BME280;63171;50.520;30.486;2023-03-18T04:14:21;101096.34;;;3.80;92.27
45253;BME280;63171;50.520;30.486;2023-03-18T04:15:11;101098.16;;;3.75;91.96
45253;BME280;63171;50.520;30.486;2023-03-18T04:16:04;101095.38;;;3.88;91.97
45253;BME280;63171;50.520;30.486;2023-03-18T04:16:54;101100.81;;;3.69;92.01
45253;BME280;63171;50.520;30.486;2023-03-18T04:17:46;101104.28;;;3.68;91.63
45253;BME280;63171;50.520;30.486;2023-03-18T04:18:40;101093.75;;;3.79;92.08
45253;BME280;63171;50.520;30.486;2023-03-18T04:19:30;101102.28;;;3.89;91.93
45253;BME280;63171;50.520;30.486;2023-03-18T04:20:20;101099.78;;;3.81;91.84
45253;BME280;63171;50.520;30.486;2023-03-18T04:21:12;101091.94;;;3.85;92.08
45253;BME280;63171;50.520;30.486;2023-03-18T04:22:06;101098.81;;;3.88;92.17
45253;BME280;63171;50.520;30.486;2023-03-18T04:22:56;101097.97;;;3.86;92.22
45253;BME280;63171;50.520;30.486;2023-03-18T04:23:47;101094.44;;;3.92;91.92
45253;BME280;63171;50.520;30.486;2023-03-18T04:24:39;101100.72;;;3.77;91.95
45253;BME280;63171;50.520;30.486;2023-03-18T04:25:29;101101.41;;;3.88;92.13
45253;BME280;63171;50.520;30.486;2023-03-18T04:26:19;101101.38;;;3.90;91.75
45253;BME280;63171;50.520;30.486;2023-03-18T04:27:11;101098.81;;;3.88;92.03
45253;BME280;63171;50.520;30.486;2023-03-18T04:28:01;101106.47;;;3.96;92.06
45253;BME280;63171;50.520;30.486;2023-03-18T04:28:52;101101.47;;;3.83;91.88
45253;BME280;63171;50.520;30.486;2023-03-18T04:29:41;101099.66;;;3.87;91.82
45253;BME280;63171;50.520;30.486;2023-03-18T04:30:34;101103.00;;;3.97;92.11
45253;BME280;63171;50.520;30.486;2023-03-18T04:31:31;101106.53;;;3.91;91.59
45253;BME280;63171;50.520;30.486;2023-03-18T04:32:22;101106.72;;;3.79;91.64
45253;BME280;63171;50.520;30.486;2023-03-18T04:33:12;101105.78;;;3.83;91.68
45253;BME280;63171;50.520;30.486;2023-03-18T04:34:03;101111.00;;;3.81;91.63
45253;BME280;63171;50.520;30.486;2023-03-18T04:34:53;101099.66;;;3.87;91.79